Nicole Brent — WDC2615 — position and weather

sailwx.info

Track history (hours):
 
Tides and Currents Weather Stations Pressure Air Temp Water Temp Dewpoint Dewpoint Depression Visibility Wind Speed Wind Dir Waves Ship Positions

Nicole Brent

Owner: Kirby Inland Marine, LP, Houston, TX. More information available from US FCC via Universal Licensing System and Coast Guard Vessel Documentation Center.

Last reported at 2017-Oct-17 16:59 UTC. Time now 2017-Oct-17 20:13 UTC.
Position N 29°34' W 094°55'.

Length 105 m; draft 2.4 m.

Type: . MMSI: 366995620.

Date/timePositionNaut miles runAvg speedWind from/ knotsBaromVisibWave heightAir tempDewpointWater temp
2017-Oct-17 16:59N 29°34' W 094°55'4 8.7
2017-Oct-17 16:30N 29°37' W 094°57'4 8.6
2017-Oct-17 16:00N 29°41' W 094°59'8 6.3
2017-Oct-17 14:41N 29°44' W 095°08'2 6.8
2017-Oct-17 14:21N 29°45' W 095°11'1 3.2
2017-Oct-17 14:00N 29°44' W 095°12'2 0.0
2017-Oct-15 21:55N 29°45' W 095°10'4 6.9
2017-Oct-15 21:17N 29°46' W 095°05'2 7.6
2017-Oct-15 21:00N 29°44' W 095°03'3 6.9
2017-Oct-15 20:30N 29°42' W 095°00'4 7.4
2017-Oct-15 20:00N 29°39' W 094°58'4 8.3
2017-Oct-15 19:30N 29°35' W 094°56'60 2.0
2017-Oct-14 14:09N 29°59' W 093°53'1 2.4
2017-Oct-14 13:44N 29°59' W 093°52'0 0.0
2017-Oct-14 11:07N 29°58' W 093°52'1 5.8
2017-Oct-14 10:58N 29°59' W 093°52'60 3.4
2017-Oct-13 17:20N 29°33' W 094°55'3 8.9
2017-Oct-13 17:00N 29°36' W 094°57'4 8.8
2017-Oct-13 16:31N 29°40' W 094°58'5 8.5
2017-Oct-13 15:58N 29°43' W 095°01'6 3.8
2017-Oct-13 14:22N 29°44' W 095°08'3 6.7
2017-Oct-13 13:58N 29°45' W 095°11'1 0.0
2017-Oct-12 09:43N 29°44' W 095°12'0 0.0
2017-Oct-12 07:21N 29°44' W 095°12'0 0.0
2017-Oct-12 06:57N 29°44' W 095°12'0 0.0
2017-Oct-12 04:33N 29°44' W 095°12'0 0.0
2017-Oct-12 04:21N 29°44' W 095°12'0 0.0
2017-Oct-12 03:45N 29°44' W 095°12'0 0.0
2017-Oct-12 03:27N 29°44' W 095°12'0 0.0
2017-Oct-12 03:00N 29°44' W 095°12'1 2.0
2017-Oct-12 02:29N 29°45' W 095°11'3 6.4
2017-Oct-12 01:58N 29°44' W 095°07'3 5.4
2017-Oct-12 01:27N 29°45' W 095°04'3 6.8
2017-Oct-12 01:00N 29°43' W 095°01'3 7.0
2017-Oct-12 00:30N 29°40' W 094°59'4 8.2
2017-Oct-12 00:00N 29°36' W 094°57'4 8.3
2017-Oct-11 23:30N 29°33' W 094°54'  
Track history (hours):
 
Tides and Currents Weather Stations Pressure Air Temp Water Temp Dewpoint Dewpoint Depression Visibility Wind Speed Wind Dir Waves Ship Positions

Nicole Brent

Owner: Kirby Inland Marine, LP, Houston, TX. More information available from US FCC via Universal Licensing System and Coast Guard Vessel Documentation Center.

Last reported at 2017-Oct-17 16:59 UTC. Time now 2017-Oct-17 20:13 UTC.
Position N 29°34' W 094°55'.

Length 105 m; draft 2.4 m.

Type: . MMSI: 366995620.

Date/timePositionNaut miles runAvg speedWind from/ knotsBaromVisibWave heightAir tempDewpointWater temp
2017-Oct-17 16:59N 29°34' W 094°55'4 8.7
2017-Oct-17 16:30N 29°37' W 094°57'4 8.6
2017-Oct-17 16:00N 29°41' W 094°59'8 6.3
2017-Oct-17 14:41N 29°44' W 095°08'2 6.8
2017-Oct-17 14:21N 29°45' W 095°11'1 3.2
2017-Oct-17 14:00N 29°44' W 095°12'2 0.0
2017-Oct-15 21:55N 29°45' W 095°10'4 6.9
2017-Oct-15 21:17N 29°46' W 095°05'2 7.6
2017-Oct-15 21:00N 29°44' W 095°03'3 6.9
2017-Oct-15 20:30N 29°42' W 095°00'4 7.4
2017-Oct-15 20:00N 29°39' W 094°58'4 8.3
2017-Oct-15 19:30N 29°35' W 094°56'60 2.0
2017-Oct-14 14:09N 29°59' W 093°53'1 2.4
2017-Oct-14 13:44N 29°59' W 093°52'0 0.0
2017-Oct-14 11:07N 29°58' W 093°52'1 5.8
2017-Oct-14 10:58N 29°59' W 093°52'60 3.4
2017-Oct-13 17:20N 29°33' W 094°55'3 8.9
2017-Oct-13 17:00N 29°36' W 094°57'4 8.8
2017-Oct-13 16:31N 29°40' W 094°58'5 8.5
2017-Oct-13 15:58N 29°43' W 095°01'6 3.8
2017-Oct-13 14:22N 29°44' W 095°08'3 6.7
2017-Oct-13 13:58N 29°45' W 095°11'1 0.0
2017-Oct-12 09:43N 29°44' W 095°12'0 0.0
2017-Oct-12 07:21N 29°44' W 095°12'0 0.0
2017-Oct-12 06:57N 29°44' W 095°12'0 0.0
2017-Oct-12 04:33N 29°44' W 095°12'0 0.0
2017-Oct-12 04:21N 29°44' W 095°12'0 0.0
2017-Oct-12 03:45N 29°44' W 095°12'0 0.0
2017-Oct-12 03:27N 29°44' W 095°12'0 0.0
2017-Oct-12 03:00N 29°44' W 095°12'1 2.0
2017-Oct-12 02:29N 29°45' W 095°11'3 6.4
2017-Oct-12 01:58N 29°44' W 095°07'3 5.4
2017-Oct-12 01:27N 29°45' W 095°04'3 6.8
2017-Oct-12 01:00N 29°43' W 095°01'3 7.0
2017-Oct-12 00:30N 29°40' W 094°59'4 8.2
2017-Oct-12 00:00N 29°36' W 094°57'4 8.3
2017-Oct-11 23:30N 29°33' W 094°54'  

Dump ship's entire track history